South San Francisco, California
Current Conditions -  °F | °C
As of 7:56 PM on Thursday 18 Dec 2014 (Local Time) from KSFO Reporting Station
Broken Clouds Broken Clouds  
Wind Chill: 57°   Ceiling: 18000
Heat Index: 57°   Visibility: 10mi
Dew Point: 55°   Wind: 5mph
Humidity: 93%   Direction: 90°E
Pressure: 30.15"   Gusts: NA
Location:  37.66°N, 122.41°W
Report Text: KSFO 190356Z 09004KT 10SM FEW050 SCT095 BKN180 14/13 A3015 RMK AO2 SLP209 T01390128
Loading
Personal Weather Stations






























Interactive Weather Map New forecast layout! Learn more

10-Day Weather Forecast

Advertisements
Track Severe Weather on mobile